sensor_id;sensor_type;location;lat;lon;timestamp;pressure;altitude;pressure_sealevel;temperature;humidity
6150;BME280;3106;42.670;23.318;2023-02-28T00:01:30;94877.25;;;7.40;100.00
6150;BME280;3106;42.670;23.318;2023-02-28T00:03:57;94868.34;;;7.44;100.00
6150;BME280;3106;42.670;23.318;2023-02-28T00:06:24;94880.09;;;7.43;100.00
6150;BME280;3106;42.670;23.318;2023-02-28T00:08:51;94880.72;;;7.41;100.00
6150;BME280;3106;42.670;23.318;2023-02-28T00:11:19;94862.84;;;7.41;100.00
6150;BME280;3106;42.670;23.318;2023-02-28T00:13:47;94872.88;;;7.36;100.00
6150;BME280;3106;42.670;23.318;2023-02-28T00:16:16;94885.09;;;7.37;100.00
6150;BME280;3106;42.670;23.318;2023-02-28T00:18:43;94873.03;;;7.47;100.00
6150;BME280;3106;42.670;23.318;2023-02-28T00:21:09;94891.38;;;7.49;100.00
6150;BME280;3106;42.670;23.318;2023-02-28T00:23:36;94893.88;;;7.54;100.00
6150;BME280;3106;42.670;23.318;2023-02-28T00:26:04;94887.91;;;7.48;100.00
6150;BME280;3106;42.670;23.318;2023-02-28T00:28:32;94893.22;;;7.48;100.00
6150;BME280;3106;42.670;23.318;2023-02-28T00:30:59;94892.44;;;7.56;100.00
6150;BME280;3106;42.670;23.318;2023-02-28T00:33:26;94878.66;;;7.46;100.00
6150;BME280;3106;42.670;23.318;2023-02-28T00:36:01;94892.31;;;7.53;100.00
6150;BME280;3106;42.670;23.318;2023-02-28T00:38:29;94899.34;;;7.49;100.00
6150;BME280;3106;42.670;23.318;2023-02-28T00:40:56;94911.69;;;7.37;100.00
6150;BME280;3106;42.670;23.318;2023-02-28T00:43:23;94897.59;;;7.36;100.00
6150;BME280;3106;42.670;23.318;2023-02-28T00:45:52;94893.66;;;7.25;100.00
6150;BME280;3106;42.670;23.318;2023-02-28T00:48:18;94889.25;;;7.21;100.00
6150;BME280;3106;42.670;23.318;2023-02-28T00:50:48;94886.28;;;7.14;100.00
6150;BME280;3106;42.670;23.318;2023-02-28T00:53:15;94874.50;;;6.98;100.00
6150;BME280;3106;42.670;23.318;2023-02-28T00:55:41;94877.31;;;6.93;100.00
6150;BME280;3106;42.670;23.318;2023-02-28T00:58:08;94885.16;;;7.06;100.00
6150;BME280;3106;42.670;23.318;2023-02-28T01:00:35;94884.84;;;7.08;100.00
6150;BME280;3106;42.670;23.318;2023-02-28T01:03:03;94902.03;;;7.02;100.00
6150;BME280;3106;42.670;23.318;2023-02-28T01:05:30;94884.19;;;7.02;100.00
6150;BME280;3106;42.670;23.318;2023-02-28T01:07:57;94896.25;;;7.00;100.00
6150;BME280;3106;42.670;23.318;2023-02-28T01:10:24;94888.88;;;6.97;100.00
6150;BME280;3106;42.670;23.318;2023-02-28T01:12:56;94891.84;;;6.95;100.00
6150;BME280;3106;42.670;23.318;2023-02-28T01:15:23;94883.69;;;6.92;100.00
6150;BME280;3106;42.670;23.318;2023-02-28T01:17:50;94874.75;;;6.88;100.00
6150;BME280;3106;42.670;23.318;2023-02-28T01:20:18;94870.78;;;6.68;100.00
6150;BME280;3106;42.670;23.318;2023-02-28T01:22:45;94882.25;;;6.77;100.00
6150;BME280;3106;42.670;23.318;2023-02-28T01:25:13;94883.91;;;6.73;100.00
6150;BME280;3106;42.670;23.318;2023-02-28T01:27:39;94881.59;;;6.72;100.00
6150;BME280;3106;42.670;23.318;2023-02-28T01:30:10;94880.78;;;6.71;100.00
6150;BME280;3106;42.670;23.318;2023-02-28T01:32:37;94872.31;;;6.61;100.00
6150;BME280;3106;42.670;23.318;2023-02-28T01:35:05;94872.31;;;6.61;100.00
6150;BME280;3106;42.670;23.318;2023-02-28T01:37:33;94881.53;;;6.63;100.00
6150;BME280;3106;42.670;23.318;2023-02-28T01:40:00;94879.22;;;6.62;100.00
6150;BME280;3106;42.670;23.318;2023-02-28T01:42:26;94876.41;;;6.67;100.00
6150;BME280;3106;42.670;23.318;2023-02-28T01:45:03;94880.31;;;6.61;100.00
6150;BME280;3106;42.670;23.318;2023-02-28T01:47:33;94877.78;;;6.64;100.00
6150;BME280;3106;42.670;23.318;2023-02-28T01:50:03;94890.50;;;6.76;100.00
6150;BME280;3106;42.670;23.318;2023-02-28T01:52:30;94897.53;;;6.72;100.00
6150;BME280;3106;42.670;23.318;2023-02-28T01:55:02;94898.22;;;6.55;100.00
6150;BME280;3106;42.670;23.318;2023-02-28T01:57:34;94886.22;;;6.58;100.00
6150;BME280;3106;42.670;23.318;2023-02-28T02:00:05;94893.16;;;6.76;100.00
6150;BME280;3106;42.670;23.318;2023-02-28T02:02:35;94895.41;;;6.82;100.00
6150;BME280;3106;42.670;23.318;2023-02-28T02:05:05;94900.84;;;6.86;100.00
6150;BME280;3106;42.670;23.318;2023-02-28T02:07:34;94861.75;;;6.78;100.00
6150;BME280;3106;42.670;23.318;2023-02-28T02:10:06;94893.34;;;6.79;100.00
6150;BME280;3106;42.670;23.318;2023-02-28T02:12:47;94843.34;;;6.51;100.00
6150;BME280;3106;42.670;23.318;2023-02-28T02:15:24;94887.56;;;6.86;100.00
6150;BME280;3106;42.670;23.318;2023-02-28T02:17:56;94889.31;;;6.90;100.00
6150;BME280;3106;42.670;23.318;2023-02-28T02:26:42;94877.16;;;6.98;100.00
6150;BME280;3106;42.670;23.318;2023-02-28T02:29:35;94881.22;;;6.95;100.00
6150;BME280;3106;42.670;23.318;2023-02-28T02:32:19;94880.78;;;7.02;100.00
6150;BME280;3106;42.670;23.318;2023-02-28T02:34:58;94888.56;;;6.98;100.00
6150;BME280;3106;42.670;23.318;2023-02-28T02:37:35;94886.34;;;6.92;100.00
6150;BME280;3106;42.670;23.318;2023-02-28T02:40:11;94893.72;;;6.95;100.00
6150;BME280;3106;42.670;23.318;2023-02-28T02:42:44;94887.44;;;6.91;100.00
6150;BME280;3106;42.670;23.318;2023-02-28T02:45:17;94882.00;;;6.96;100.00
6150;BME280;3106;42.670;23.318;2023-02-28T02:47:46;94883.72;;;7.00;100.00
6150;BME280;3106;42.670;23.318;2023-02-28T02:50:17;94895.16;;;7.01;100.00
6150;BME280;3106;42.670;23.318;2023-02-28T02:52:48;94897.94;;;6.96;100.00
6150;BME280;3106;42.670;23.318;2023-02-28T02:55:18;94897.66;;;6.67;100.00
6150;BME280;3106;42.670;23.318;2023-02-28T02:57:49;94899.66;;;6.61;100.00
6150;BME280;3106;42.670;23.318;2023-02-28T03:00:20;94897.28;;;6.51;100.00
6150;BME280;3106;42.670;23.318;2023-02-28T03:02:50;94909.13;;;6.54;100.00
6150;BME280;3106;42.670;23.318;2023-02-28T03:05:24;94884.69;;;6.35;100.00
6150;BME280;3106;42.670;23.318;2023-02-28T03:07:52;94915.13;;;6.59;100.00
6150;BME280;3106;42.670;23.318;2023-02-28T03:10:28;94912.00;;;6.57;100.00
6150;BME280;3106;42.670;23.318;2023-02-28T03:13:03;94925.19;;;6.71;100.00
6150;BME280;3106;42.670;23.318;2023-02-28T03:15:43;94930.31;;;6.67;100.00
6150;BME280;3106;42.670;23.318;2023-02-28T03:18:18;94929.84;;;6.65;100.00
6150;BME280;3106;42.670;23.318;2023-02-28T03:20:56;94929.22;;;6.68;100.00
6150;BME280;3106;42.670;23.318;2023-02-28T03:23:32;94933.31;;;6.74;100.00
6150;BME280;3106;42.670;23.318;2023-02-28T03:26:10;94941.00;;;6.76;100.00
6150;BME280;3106;42.670;23.318;2023-02-28T03:28:43;94933.03;;;6.76;100.00
6150;BME280;3106;42.670;23.318;2023-02-28T03:31:17;94944.56;;;6.71;100.00
6150;BME280;3106;42.670;23.318;2023-02-28T03:33:49;94944.59;;;6.80;100.00
6150;BME280;3106;42.670;23.318;2023-02-28T03:36:25;94918.25;;;6.61;100.00
6150;BME280;3106;42.670;23.318;2023-02-28T03:38:56;94951.53;;;6.89;100.00
6150;BME280;3106;42.670;23.318;2023-02-28T03:41:31;94953.59;;;6.92;100.00
6150;BME280;3106;42.670;23.318;2023-02-28T03:44:03;94947.19;;;6.93;100.00
6150;BME280;3106;42.670;23.318;2023-02-28T03:46:36;94934.78;;;6.80;100.00
6150;BME280;3106;42.670;23.318;2023-02-28T03:49:11;94945.59;;;6.92;100.00
6150;BME280;3106;42.670;23.318;2023-02-28T03:51:42;94954.06;;;6.94;100.00
6150;BME280;3106;42.670;23.318;2023-02-28T03:54:13;94958.16;;;7.00;100.00
6150;BME280;3106;42.670;23.318;2023-02-28T03:56:47;94957.38;;;7.00;100.00
6150;BME280;3106;42.670;23.318;2023-02-28T03:59:18;94912.66;;;6.71;100.00
6150;BME280;3106;42.670;23.318;2023-02-28T04:01:47;94960.03;;;7.00;100.00
6150;BME280;3106;42.670;23.318;2023-02-28T04:04:16;94958.47;;;6.99;100.00
6150;BME280;3106;42.670;23.318;2023-02-28T04:06:44;94957.53;;;7.03;100.00
6150;BME280;3106;42.670;23.318;2023-02-28T04:09:13;94959.72;;;7.01;100.00
6150;BME280;3106;42.670;23.318;2023-02-28T04:11:42;94948.25;;;6.92;100.00
6150;BME280;3106;42.670;23.318;2023-02-28T04:14:11;94955.00;;;6.98;100.00
6150;BME280;3106;42.670;23.318;2023-02-28T04:16:39;94950.44;;;6.90;100.00
6150;BME280;3106;42.670;23.318;2023-02-28T04:19:09;94950.44;;;6.90;100.00
6150;BME280;3106;42.670;23.318;2023-02-28T04:21:38;94948.53;;;6.82;100.00
6150;BME280;3106;42.670;23.318;2023-02-28T04:24:08;94944.47;;;6.85;100.00
6150;BME280;3106;42.670;23.318;2023-02-28T04:26:40;94954.94;;;6.81;100.00
6150;BME280;3106;42.670;23.318;2023-02-28T04:29:09;94955.56;;;6.78;100.00
6150;BME280;3106;42.670;23.318;2023-02-28T04:31:36;94964.28;;;6.79;100.00
6150;BME280;3106;42.670;23.318;2023-02-28T04:34:03;94959.47;;;6.81;100.00
6150;BME280;3106;42.670;23.318;2023-02-28T04:36:30;94960.56;;;6.80;100.00
6150;BME280;3106;42.670;23.318;2023-02-28T04:38:57;94959.16;;;6.82;100.00
6150;BME280;3106;42.670;23.318;2023-02-28T04:41:26;94964.97;;;6.84;100.00
6150;BME280;3106;42.670;23.318;2023-02-28T04:43:53;94966.34;;;6.82;100.00
6150;BME280;3106;42.670;23.318;2023-02-28T04:46:21;94964.78;;;6.81;100.00
6150;BME280;3106;42.670;23.318;2023-02-28T04:48:49;94974.97;;;6.87;100.00
6150;BME280;3106;42.670;23.318;2023-02-28T04:51:17;94974.78;;;6.84;100.00
6150;BME280;3106;42.670;23.318;2023-02-28T04:53:44;94980.59;;;6.86;100.00
6150;BME280;3106;42.670;23.318;2023-02-28T04:56:12;94986.84;;;6.81;100.00
6150;BME280;3106;42.670;23.318;2023-02-28T04:58:41;94988.22;;;6.79;100.00
6150;BME280;3106;42.670;23.318;2023-02-28T05:01:17;94992.75;;;6.78;100.00
6150;BME280;3106;42.670;23.318;2023-02-28T05:03:44;94982.59;;;6.80;100.00
6150;BME280;3106;42.670;23.318;2023-02-28T05:06:12;94980.56;;;6.77;100.00
6150;BME280;3106;42.670;23.318;2023-02-28T05:08:39;94969.22;;;6.63;100.00
6150;BME280;3106;42.670;23.318;2023-02-28T05:11:08;94965.91;;;6.58;100.00
6150;BME280;3106;42.670;23.318;2023-02-28T05:13:39;94971.03;;;6.54;100.00
6150;BME280;3106;42.670;23.318;2023-02-28T05:16:07;94935.06;;;6.26;100.00
6150;BME280;3106;42.670;23.318;2023-02-28T05:18:34;94981.84;;;6.58;100.00
6150;BME280;3106;42.670;23.318;2023-02-28T05:21:00;94976.41;;;6.63;100.00
6150;BME280;3106;42.670;23.318;2023-02-28T05:23:28;94993.84;;;6.77;100.00
6150;BME280;3106;42.670;23.318;2023-02-28T05:25:56;94999.31;;;6.81;100.00
6150;BME280;3106;42.670;23.318;2023-02-28T05:28:23;95000.88;;;6.82;100.00
6150;BME280;3106;42.670;23.318;2023-02-28T05:30:52;95007.34;;;6.89;100.00
6150;BME280;3106;42.670;23.318;2023-02-28T05:33:20;95017.19;;;6.89;100.00
6150;BME280;3106;42.670;23.318;2023-02-28T05:35:47;95014.41;;;6.94;100.00
6150;BME280;3106;42.670;23.318;2023-02-28T05:38:14;95009.09;;;6.94;100.00
6150;BME280;3106;42.670;23.318;2023-02-28T05:40:40;95008.03;;;7.03;100.00
6150;BME280;3106;42.670;23.318;2023-02-28T05:43:10;95012.13;;;7.09;100.00
6150;BME280;3106;42.670;23.318;2023-02-28T05:45:37;94969.19;;;6.85;100.00
6150;BME280;3106;42.670;23.318;2023-02-28T05:48:04;95018.28;;;7.18;100.00
6150;BME280;3106;42.670;23.318;2023-02-28T05:50:33;95012.50;;;7.16;100.00
6150;BME280;3106;42.670;23.318;2023-02-28T05:53:02;95019.69;;;7.16;100.00
6150;BME280;3106;42.670;23.318;2023-02-28T05:55:29;95024.56;;;7.22;100.00
6150;BME280;3106;42.670;23.318;2023-02-28T05:57:55;95017.69;;;7.21;100.00
6150;BME280;3106;42.670;23.318;2023-02-28T06:00:23;95025.38;;;7.31;100.00
6150;BME280;3106;42.670;23.318;2023-02-28T06:02:50;95029.78;;;7.36;100.00
6150;BME280;3106;42.670;23.318;2023-02-28T06:05:18;95023.88;;;7.39;100.00
6150;BME280;3106;42.670;23.318;2023-02-28T06:07:46;95016.50;;;7.44;100.00
6150;BME280;3106;42.670;23.318;2023-02-28T06:10:13;95019.53;;;7.51;100.00
6150;BME280;3106;42.670;23.318;2023-02-28T06:12:41;95019.38;;;7.56;100.00
6150;BME280;3106;42.670;23.318;2023-02-28T06:15:12;95017.97;;;7.58;100.00
6150;BME280;3106;42.670;23.318;2023-02-28T06:17:39;95023.16;;;7.63;100.00
6150;BME280;3106;42.670;23.318;2023-02-28T06:20:09;95015.81;;;7.69;100.00
6150;BME280;3106;42.670;23.318;2023-02-28T06:22:38;95016.78;;;7.73;100.00
6150;BME280;3106;42.670;23.318;2023-02-28T06:25:07;95017.91;;;7.80;100.00
6150;BME280;3106;42.670;23.318;2023-02-28T06:27:34;95010.09;;;7.84;100.00
6150;BME280;3106;42.670;23.318;2023-02-28T06:30:01;95011.16;;;7.91;100.00
6150;BME280;3106;42.670;23.318;2023-02-28T06:32:28;95017.91;;;7.97;100.00
6150;BME280;3106;42.670;23.318;2023-02-28T06:34:54;95024.47;;;7.91;100.00
6150;BME280;3106;42.670;23.318;2023-02-28T06:37:23;95027.00;;;7.88;100.00
6150;BME280;3106;42.670;23.318;2023-02-28T06:39:53;95029.50;;;8.01;100.00
6150;BME280;3106;42.670;23.318;2023-02-28T06:42:24;95032.19;;;8.10;100.00
6150;BME280;3106;42.670;23.318;2023-02-28T06:44:54;95036.56;;;8.06;100.00
6150;BME280;3106;42.670;23.318;2023-02-28T06:47:21;95037.66;;;8.05;100.00
6150;BME280;3106;42.670;23.318;2023-02-28T06:49:48;95039.88;;;8.03;100.00
6150;BME280;3106;42.670;23.318;2023-02-28T06:52:15;95038.91;;;7.99;100.00
6150;BME280;3106;42.670;23.318;2023-02-28T06:54:42;95045.34;;;7.98;100.00
6150;BME280;3106;42.670;23.318;2023-02-28T06:57:09;95041.41;;;7.95;100.00
6150;BME280;3106;42.670;23.318;2023-02-28T06:59:37;95035.41;;;7.73;100.00
6150;BME280;3106;42.670;23.318;2023-02-28T07:02:04;95043.72;;;7.80;100.00
6150;BME280;3106;42.670;23.318;2023-02-28T07:04:35;95046.06;;;7.81;100.00
6150;BME280;3106;42.670;23.318;2023-02-28T07:07:01;95042.97;;;7.88;100.00
6150;BME280;3106;42.670;23.318;2023-02-28T07:09:29;95048.00;;;7.98;100.00
6150;BME280;3106;42.670;23.318;2023-02-28T07:11:55;95033.75;;;8.02;100.00
6150;BME280;3106;42.670;23.318;2023-02-28T07:14:22;95038.94;;;8.07;100.00
6150;BME280;3106;42.670;23.318;2023-02-28T07:16:51;95046.91;;;8.16;100.00
6150;BME280;3106;42.670;23.318;2023-02-28T07:19:18;95038.34;;;8.19;100.00
6150;BME280;3106;42.670;23.318;2023-02-28T07:21:45;95032.41;;;8.22;100.00
6150;BME280;3106;42.670;23.318;2023-02-28T07:24:11;95038.22;;;8.24;100.00
6150;BME280;3106;42.670;23.318;2023-02-28T07:26:41;95043.38;;;8.29;100.00
6150;BME280;3106;42.670;23.318;2023-02-28T07:29:07;95042.75;;;8.32;100.00
6150;BME280;3106;42.670;23.318;2023-02-28T07:31:34;95046.03;;;8.37;100.00
6150;BME280;3106;42.670;23.318;2023-02-28T07:34:02;95035.72;;;8.44;100.00
6150;BME280;3106;42.670;23.318;2023-02-28T07:36:29;95036.03;;;8.60;100.00
6150;BME280;3106;42.670;23.318;2023-02-28T07:38:58;95037.13;;;8.59;100.00
6150;BME280;3106;42.670;23.318;2023-02-28T07:41:25;95039.78;;;8.67;100.00
6150;BME280;3106;42.670;23.318;2023-02-28T07:43:53;95028.19;;;8.63;100.00
6150;BME280;3106;42.670;23.318;2023-02-28T07:46:21;95046.84;;;8.72;100.00
6150;BME280;3106;42.670;23.318;2023-02-28T07:48:48;95039.63;;;8.72;100.00
6150;BME280;3106;42.670;23.318;2023-02-28T07:51:17;95038.84;;;8.72;100.00
6150;BME280;3106;42.670;23.318;2023-02-28T07:53:47;95033.97;;;8.74;100.00
6150;BME280;3106;42.670;23.318;2023-02-28T07:56:13;95034.75;;;8.83;100.00
6150;BME280;3106;42.670;23.318;2023-02-28T07:58:40;95029.25;;;8.88;100.00
6150;BME280;3106;42.670;23.318;2023-02-28T08:01:08;95021.88;;;8.93;100.00
6150;BME280;3106;42.670;23.318;2023-02-28T08:03:35;95026.88;;;9.03;100.00
6150;BME280;3106;42.670;23.318;2023-02-28T08:06:03;95024.25;;;8.95;100.00
6150;BME280;3106;42.670;23.318;2023-02-28T08:08:31;95032.38;;;9.06;100.00
6150;BME280;3106;42.670;23.318;2023-02-28T08:10:59;95011.03;;;9.06;100.00
6150;BME280;3106;42.670;23.318;2023-02-28T08:13:27;95021.31;;;9.33;100.00
6150;BME280;3106;42.670;23.318;2023-02-28T08:15:54;95026.97;;;9.69;100.00
6150;BME280;3106;42.670;23.318;2023-02-28T08:18:22;94992.28;;;9.69;100.00
6150;BME280;3106;42.670;23.318;2023-02-28T08:20:49;95033.25;;;10.02;100.00
6150;BME280;3106;42.670;23.318;2023-02-28T08:23:16;95026.50;;;10.05;100.00
6150;BME280;3106;42.670;23.318;2023-02-28T08:25:44;95036.69;;;10.11;100.00
6150;BME280;3106;42.670;23.318;2023-02-28T08:28:11;95031.34;;;10.11;100.00
6150;BME280;3106;42.670;23.318;2023-02-28T08:30:38;95031.16;;;10.16;100.00
6150;BME280;3106;42.670;23.318;2023-02-28T08:33:06;95031.78;;;10.13;100.00
6150;BME280;3106;42.670;23.318;2023-02-28T08:35:35;95036.94;;;10.18;100.00
6150;BME280;3106;42.670;23.318;2023-02-28T08:38:02;95040.72;;;10.17;100.00
6150;BME280;3106;42.670;23.318;2023-02-28T08:40:29;95035.38;;;9.80;100.00
6150;BME280;3106;42.670;23.318;2023-02-28T08:42:57;95040.88;;;9.83;100.00
6150;BME280;3106;42.670;23.318;2023-02-28T08:45:24;95039.88;;;9.96;100.00
6150;BME280;3106;42.670;23.318;2023-02-28T08:47:51;95043.00;;;9.98;100.00
6150;BME280;3106;42.670;23.318;2023-02-28T08:50:18;95041.13;;;10.07;100.00
6150;BME280;3106;42.670;23.318;2023-02-28T08:52:45;95034.88;;;9.95;100.00
6150;BME280;3106;42.670;23.318;2023-02-28T08:55:12;95037.06;;;9.93;100.00
6150;BME280;3106;42.670;23.318;2023-02-28T08:57:39;95043.00;;;9.98;100.00
6150;BME280;3106;42.670;23.318;2023-02-28T09:00:11;95045.00;;;10.10;100.00
6150;BME280;3106;42.670;23.318;2023-02-28T09:02:38;95041.78;;;10.25;100.00
6150;BME280;3106;42.670;23.318;2023-02-28T09:05:06;95051.28;;;10.34;100.00
6150;BME280;3106;42.670;23.318;2023-02-28T09:07:33;95043.66;;;10.24;100.00
6150;BME280;3106;42.670;23.318;2023-02-28T09:10:00;95041.19;;;10.19;100.00
6150;BME280;3106;42.670;23.318;2023-02-28T09:12:27;95035.38;;;10.17;100.00
6150;BME280;3106;42.670;23.318;2023-02-28T09:14:58;95040.28;;;10.15;100.00
6150;BME280;3106;42.670;23.318;2023-02-28T09:17:26;95031.41;;;10.23;100.00
6150;BME280;3106;42.670;23.318;2023-02-28T09:19:53;95041.13;;;10.28;100.00
6150;BME280;3106;42.670;23.318;2023-02-28T09:22:19;95039.03;;;10.33;100.00
6150;BME280;3106;42.670;23.318;2023-02-28T09:24:46;95027.38;;;10.38;100.00
6150;BME280;3106;42.670;23.318;2023-02-28T09:27:13;95031.16;;;10.37;100.00
6150;BME280;3106;42.670;23.318;2023-02-28T09:29:40;95042.06;;;10.32;100.00
6150;BME280;3106;42.670;23.318;2023-02-28T09:32:07;95038.72;;;10.35;100.00
6150;BME280;3106;42.670;23.318;2023-02-28T09:34:35;95032.88;;;10.41;100.00
6150;BME280;3106;42.670;23.318;2023-02-28T09:37:02;95034.81;;;10.52;100.00
6150;BME280;3106;42.670;23.318;2023-02-28T09:39:29;95030.38;;;10.56;100.00
6150;BME280;3106;42.670;23.318;2023-02-28T09:41:57;95028.69;;;10.72;100.00
6150;BME280;3106;42.670;23.318;2023-02-28T09:44:28;95026.91;;;10.76;100.00
6150;BME280;3106;42.670;23.318;2023-02-28T09:46:59;95032.66;;;10.87;100.00
6150;BME280;3106;42.670;23.318;2023-02-28T09:49:34;95027.81;;;10.80;100.00
6150;BME280;3106;42.670;23.318;2023-02-28T09:52:05;95019.81;;;10.60;100.00
6150;BME280;3106;42.670;23.318;2023-02-28T09:54:34;95022.63;;;10.84;100.00
6150;BME280;3106;42.670;23.318;2023-02-28T09:57:08;95019.84;;;10.92;100.00
6150;BME280;3106;42.670;23.318;2023-02-28T09:59:44;95026.13;;;10.96;100.00
6150;BME280;3106;42.670;23.318;2023-02-28T10:02:24;95006.28;;;10.97;100.00
6150;BME280;3106;42.670;23.318;2023-02-28T10:04:59;95012.25;;;11.15;100.00
6150;BME280;3106;42.670;23.318;2023-02-28T10:07:39;95017.47;;;11.23;100.00
6150;BME280;3106;42.670;23.318;2023-02-28T10:10:18;95008.34;;;11.57;100.00
6150;BME280;3106;42.670;23.318;2023-02-28T10:12:47;94999.53;;;11.68;100.00
6150;BME280;3106;42.670;23.318;2023-02-28T10:15:15;95002.31;;;11.84;100.00
6150;BME280;3106;42.670;23.318;2023-02-28T10:17:47;95002.09;;;12.01;100.00
6150;BME280;3106;42.670;23.318;2023-02-28T10:20:20;94998.72;;;12.15;100.00
6150;BME280;3106;42.670;23.318;2023-02-28T10:22:52;94998.03;;;12.18;99.50
6150;BME280;3106;42.670;23.318;2023-02-28T10:25:24;94954.19;;;11.87;98.66
6150;BME280;3106;42.670;23.318;2023-02-28T10:27:53;94992.47;;;12.23;99.92
6150;BME280;3106;42.670;23.318;2023-02-28T10:30:21;94996.03;;;12.27;98.96
6150;BME280;3106;42.670;23.318;2023-02-28T10:32:49;94988.19;;;12.34;98.17
6150;BME280;3106;42.670;23.318;2023-02-28T10:35:22;94976.78;;;12.37;97.90
6150;BME280;3106;42.670;23.318;2023-02-28T10:37:53;94978.47;;;12.30;97.75
6150;BME280;3106;42.670;23.318;2023-02-28T10:40:30;94975.56;;;12.35;96.88
6150;BME280;3106;42.670;23.318;2023-02-28T10:42:59;94960.91;;;12.44;95.57
6150;BME280;3106;42.670;23.318;2023-02-28T10:45:28;94962.75;;;12.56;94.36
6150;BME280;3106;42.670;23.318;2023-02-28T10:47:58;94964.44;;;12.60;94.67
6150;BME280;3106;42.670;23.318;2023-02-28T10:50:34;94949.22;;;12.64;93.93
6150;BME280;3106;42.670;23.318;2023-02-28T10:53:31;94943.69;;;12.73;94.28
6150;BME280;3106;42.670;23.318;2023-02-28T10:56:00;94956.16;;;12.53;94.37
6150;BME280;3106;42.670;23.318;2023-02-28T10:58:30;94945.13;;;12.55;94.19
6150;BME280;3106;42.670;23.318;2023-02-28T11:00:58;94918.47;;;12.62;93.69
6150;BME280;3106;42.670;23.318;2023-02-28T11:03:30;94934.91;;;12.88;93.19
6150;BME280;3106;42.670;23.318;2023-02-28T11:06:04;94931.75;;;12.98;92.44
6150;BME280;3106;42.670;23.318;2023-02-28T11:08:32;94927.88;;;12.83;92.24
6150;BME280;3106;42.670;23.318;2023-02-28T11:11:05;94925.34;;;12.75;91.75
6150;BME280;3106;42.670;23.318;2023-02-28T11:13:35;94931.31;;;12.68;93.06
6150;BME280;3106;42.670;23.318;2023-02-28T11:16:05;94924.94;;;12.88;92.54
6150;BME280;3106;42.670;23.318;2023-02-28T11:18:38;94922.94;;;12.97;91.26
6150;BME280;3106;42.670;23.318;2023-02-28T11:21:09;94906.84;;;12.85;90.88
6150;BME280;3106;42.670;23.318;2023-02-28T11:23:42;94918.00;;;12.87;90.31
6150;BME280;3106;42.670;23.318;2023-02-28T11:26:09;94893.31;;;12.66;91.30
6150;BME280;3106;42.670;23.318;2023-02-28T11:28:39;94909.53;;;12.85;92.20
6150;BME280;3106;42.670;23.318;2023-02-28T11:31:17;94910.00;;;13.03;91.18
6150;BME280;3106;42.670;23.318;2023-02-28T11:33:47;94917.31;;;13.18;90.38
6150;BME280;3106;42.670;23.318;2023-02-28T11:36:19;94918.88;;;13.34;89.43
6150;BME280;3106;42.670;23.318;2023-02-28T11:38:47;94903.91;;;13.33;89.23
6150;BME280;3106;42.670;23.318;2023-02-28T11:41:36;94905.47;;;13.50;89.51
6150;BME280;3106;42.670;23.318;2023-02-28T11:44:23;94911.94;;;13.49;89.28
6150;BME280;3106;42.670;23.318;2023-02-28T11:46:56;94894.88;;;13.10;88.52
6150;BME280;3106;42.670;23.318;2023-02-28T11:49:32;94904.75;;;13.06;89.85
6150;BME280;3106;42.670;23.318;2023-02-28T11:52:14;94903.28;;;13.24;90.15
6150;BME280;3106;42.670;23.318;2023-02-28T11:55:04;94896.44;;;13.42;89.63
6150;BME280;3106;42.670;23.318;2023-02-28T11:57:51;94901.88;;;13.61;88.61
6150;BME280;3106;42.670;23.318;2023-02-28T12:00:33;94897.13;;;13.55;88.16
6150;BME280;3106;42.670;23.318;2023-02-28T12:03:17;94902.69;;;13.46;88.73
6150;BME280;3106;42.670;23.318;2023-02-28T12:05:53;94901.53;;;13.62;88.04
6150;BME280;3106;42.670;23.318;2023-02-28T12:08:41;94900.75;;;13.47;88.16
6150;BME280;3106;42.670;23.318;2023-02-28T12:11:13;94906.66;;;13.21;89.09
6150;BME280;3106;42.670;23.318;2023-02-28T12:13:51;94893.41;;;13.28;89.82
6150;BME280;3106;42.670;23.318;2023-02-28T12:16:33;94893.94;;;13.34;87.65
6150;BME280;3106;42.670;23.318;2023-02-28T12:19:17;94887.00;;;13.33;88.06
6150;BME280;3106;42.670;23.318;2023-02-28T12:22:02;94895.22;;;13.40;88.96
6150;BME280;3106;42.670;23.318;2023-02-28T12:24:47;94892.97;;;13.26;88.49
6150;BME280;3106;42.670;23.318;2023-02-28T12:27:19;94885.16;;;13.21;88.25
6150;BME280;3106;42.670;23.318;2023-02-28T12:29:51;94890.03;;;13.16;88.25
6150;BME280;3106;42.670;23.318;2023-02-28T12:32:23;94903.53;;;13.19;87.50
6150;BME280;3106;42.670;23.318;2023-02-28T12:34:55;94902.16;;;13.25;87.32
6150;BME280;3106;42.670;23.318;2023-02-28T12:37:27;94893.66;;;13.08;87.53
6150;BME280;3106;42.670;23.318;2023-02-28T12:40:02;94876.31;;;12.90;88.66
6150;BME280;3106;42.670;23.318;2023-02-28T12:42:33;94892.56;;;12.81;89.11
6150;BME280;3106;42.670;23.318;2023-02-28T12:45:08;94893.88;;;12.87;89.46
6150;BME280;3106;42.670;23.318;2023-02-28T12:47:38;94888.22;;;13.04;89.24
6150;BME280;3106;42.670;23.318;2023-02-28T12:50:10;94890.81;;;13.16;88.53
6150;BME280;3106;42.670;23.318;2023-02-28T12:52:41;94879.53;;;13.26;87.91
6150;BME280;3106;42.670;23.318;2023-02-28T12:55:19;94891.06;;;13.42;87.67
6150;BME280;3106;42.670;23.318;2023-02-28T12:57:56;94885.25;;;13.56;86.41
6150;BME280;3106;42.670;23.318;2023-02-28T13:00:29;94879.47;;;13.38;85.61
6150;BME280;3106;42.670;23.318;2023-02-28T13:06:12;94886.31;;;13.36;86.66
6150;BME280;3106;42.670;23.318;2023-02-28T13:08:59;94883.19;;;13.34;85.70
6150;BME280;3106;42.670;23.318;2023-02-28T13:11:31;94886.13;;;13.29;86.22
6150;BME280;3106;42.670;23.318;2023-02-28T13:14:01;94880.59;;;13.06;86.87
6150;BME280;3106;42.670;23.318;2023-02-28T13:16:35;94881.47;;;13.10;87.13
6150;BME280;3106;42.670;23.318;2023-02-28T13:19:17;94878.78;;;13.10;86.77
6150;BME280;3106;42.670;23.318;2023-02-28T13:21:47;94871.16;;;13.12;87.87
6150;BME280;3106;42.670;23.318;2023-02-28T13:24:43;94878.06;;;13.13;87.94
6150;BME280;3106;42.670;23.318;2023-02-28T13:27:34;94876.34;;;13.21;87.09
6150;BME280;3106;42.670;23.318;2023-02-28T13:33:25;94878.94;;;13.17;86.20
6150;BME280;3106;42.670;23.318;2023-02-28T13:36:23;94873.72;;;13.09;86.31
6150;BME280;3106;42.670;23.318;2023-02-28T13:38:52;94874.38;;;12.90;86.96
6150;BME280;3106;42.670;23.318;2023-02-28T13:41:45;94875.78;;;12.84;86.64